Pagrindinis puslapis
METAR-TAF:

METAR-TAF

Oro uostai :

Klermonas-Feranas, Prancūzija

platuma: 45-47N, ilguma: 003-10E, Aukštis: 332 m

Dabartinis oras

Ataskaita buvo paskelbta 28 minutes, ne 16:30 UTC
Vėjas 7 kt iš Rytų/Šiaurės Rytų, svyruoja nuo Šiaurės/Šiaurės Rytų ir Rytų/Pietryčių
Temperatūra 11°C
Drėgmė 37%
Slėgis 1018 hPa
Matomumas 10 km arba daugiau
nėra debesų žemiau 1500 m ir nėra kamuolinių lietaus debesų

METAR: LFLC 311630Z AUTO 06007KT 020V120 CAVOK 11/M03 Q1018 NOSIG

Laikas: 18:58 (16:58 UTC)

Prognozė

Ataskaita buvo paskelbta 2 valandos ir 58 minutes, ne 14:00 UTC
Prognozė galioja nuo 31 metu 15 UTC su 01 metu 15 UTC
Vėjas 10 kt iš Šiaurės
Matomumas 10 km arba daugiau
nėra debesų žemiau 1500 m ir nėra kamuolinių lietaus debesų
Tapsmas
nuo 31 metu 20 UTC su 31 metu 23 UTC
Vėjas 2 kt nuo kintamojo kryptimis
Tapsmas
nuo 01 metu 10 UTC su 01 metu 12 UTC
Vėjas 8 kt iš Šiaurės/Šiaurės Rytų
Su prošvaistėmis ne aukštis 4000 ft

TAF: LFLC 311400Z 3115/0115 01010KT CAVOK BECMG 3120/3123 VRB02KT BECMG 0110/0112 03008KT BKN040

Orai ataskaitas ir orų prognozės (METAR, TAF).

turimą stotys yra geltonos ir raudonos taškus žemėlapyje.

Perkelti pele per norėdami pamatyti stoties vardą.

Tada spustelėkite, norėdami matyti oro stebėjimo ir prognozės.

Norėdami pakeisti žemėlapį: spustelėkite ant žalios mygtukų su juodo kryžiaus žemyn,; žalią mygtuką su brūkšneliu, jei norite nutolinti; arba žalių rodyklių gretimoms žemėlapius.


METAR-TAF: